createdAt,value
2017-10-24T00:01:13.667Z,15.78
2017-10-24T00:03:42.013Z,15.56
2017-10-24T00:06:10.666Z,15.27
2017-10-24T00:08:39.715Z,15.30
2017-10-24T00:11:08.111Z,15.44
2017-10-24T00:13:37.379Z,15.56
2017-10-24T00:16:05.740Z,15.56
2017-10-24T00:18:34.885Z,15.50
2017-10-24T00:21:03.395Z,15.30
2017-10-24T00:23:31.737Z,15.30
2017-10-24T00:26:00.085Z,15.49
2017-10-24T00:28:28.495Z,15.41
2017-10-24T00:30:56.820Z,15.47
2017-10-24T00:33:25.908Z,15.50
2017-10-24T00:35:54.296Z,15.39
2017-10-24T00:38:22.663Z,15.35
2017-10-24T00:40:51.046Z,15.25
2017-10-24T00:43:19.486Z,15.25
2017-10-24T00:45:48.609Z,15.29
2017-10-24T00:48:16.958Z,15.16
2017-10-24T00:50:45.367Z,15.00
2017-10-24T00:53:14.531Z,15.26
2017-10-24T00:55:42.877Z,15.32
2017-10-24T00:58:11.247Z,15.04
2017-10-24T01:00:39.589Z,15.21
2017-10-24T01:03:08.194Z,15.04
2017-10-24T01:05:36.872Z,15.25
2017-10-24T01:08:05.986Z,15.34
2017-10-24T01:10:34.331Z,15.25
2017-10-24T01:13:02.709Z,15.23
2017-10-24T01:15:31.066Z,15.21
2017-10-24T01:18:00.075Z,15.23
2017-10-24T01:20:28.454Z,15.32
2017-10-24T01:22:56.789Z,15.49
2017-10-24T01:25:25.148Z,15.54
2017-10-24T01:27:53.737Z,15.56
2017-10-24T01:30:22.081Z,15.40
2017-10-24T01:32:50.433Z,15.24
2017-10-24T01:35:19.570Z,15.42
2017-10-24T01:37:47.907Z,15.49
2017-10-24T01:40:17.022Z,15.26
2017-10-24T01:42:46.287Z,15.16
2017-10-24T01:45:14.640Z,14.89
2017-10-24T01:47:42.995Z,14.90
2017-10-24T01:50:11.568Z,15.02
2017-10-24T01:52:39.926Z,15.17
2017-10-24T01:55:09.043Z,15.11
2017-10-24T01:57:37.422Z,14.92
2017-10-24T02:00:05.780Z,14.81
2017-10-24T02:02:34.130Z,14.82
2017-10-24T02:05:02.523Z,14.80
2017-10-24T02:07:30.876Z,14.87
2017-10-24T02:09:59.252Z,14.85
2017-10-24T02:12:28.410Z,14.68
2017-10-24T02:14:56.775Z,14.78
2017-10-24T02:17:25.955Z,14.43
2017-10-24T02:19:54.343Z,14.61
2017-10-24T02:22:23.470Z,14.67
2017-10-24T02:24:51.809Z,14.72
2017-10-24T02:27:20.192Z,14.84
2017-10-24T02:29:48.563Z,14.89
2017-10-24T02:32:16.914Z,14.64
2017-10-24T02:34:45.499Z,14.53
2017-10-24T02:37:13.891Z,14.43
2017-10-24T02:39:42.250Z,14.48
2017-10-24T02:42:10.628Z,14.51
2017-10-24T02:44:38.963Z,14.78
2017-10-24T02:47:08.067Z,14.75
2017-10-24T02:49:36.456Z,14.62
2017-10-24T02:52:04.812Z,14.80
2017-10-24T02:54:33.159Z,14.89
2017-10-24T02:57:02.397Z,15.06
2017-10-24T02:59:31.519Z,15.09
2017-10-24T03:01:59.889Z,15.17
2017-10-24T03:04:28.244Z,14.99
2017-10-24T03:06:56.585Z,14.91
2017-10-24T03:09:24.961Z,15.01
2017-10-24T03:11:53.332Z,15.05
2017-10-24T03:14:21.663Z,14.90
2017-10-24T03:16:50.764Z,14.94
2017-10-24T03:19:20.046Z,14.94
2017-10-24T03:21:48.386Z,14.85
2017-10-24T03:24:16.729Z,14.64
2017-10-24T03:26:45.875Z,14.68
2017-10-24T03:29:15.079Z,14.58
2017-10-24T03:31:44.310Z,14.64
2017-10-24T03:34:12.687Z,14.68
2017-10-24T03:36:42.244Z,14.68
2017-10-24T03:39:11.346Z,14.72
2017-10-24T03:41:40.594Z,14.69
2017-10-24T03:44:08.960Z,14.63
2017-10-24T03:46:37.323Z,14.62
2017-10-24T03:49:05.694Z,14.53
2017-10-24T03:51:34.056Z,14.57
2017-10-24T03:54:03.076Z,14.70
2017-10-24T03:56:31.470Z,14.62
2017-10-24T03:59:00.610Z,14.60
2017-10-24T04:01:28.964Z,14.68
2017-10-24T04:03:57.546Z,14.61
2017-10-24T04:06:25.878Z,14.56
2017-10-24T04:08:54.234Z,14.66
2017-10-24T04:11:23.453Z,14.65
2017-10-24T04:13:51.809Z,14.70
2017-10-24T04:16:20.153Z,14.70
2017-10-24T04:18:49.244Z,14.63
2017-10-24T04:21:17.596Z,14.53
2017-10-24T04:23:45.957Z,14.56
2017-10-24T04:26:14.484Z,14.60
2017-10-24T04:28:43.411Z,14.62
2017-10-24T04:31:11.753Z,14.64
2017-10-24T04:33:40.117Z,14.73
2017-10-24T04:36:09.399Z,14.74
2017-10-24T04:38:37.749Z,14.64
2017-10-24T04:41:07.038Z,14.68
2017-10-24T04:43:36.654Z,14.68
2017-10-24T04:46:04.999Z,14.34
2017-10-24T04:48:33.455Z,14.33
2017-10-24T04:51:01.810Z,14.27
2017-10-24T04:53:30.169Z,14.35
2017-10-24T04:55:58.648Z,13.97
2017-10-24T04:58:26.995Z,14.22
2017-10-24T05:00:56.079Z,14.32
2017-10-24T05:03:24.451Z,14.10
2017-10-24T05:05:52.808Z,14.21
2017-10-24T05:08:21.150Z,14.08
2017-10-24T05:10:50.771Z,13.83
2017-10-24T05:13:19.113Z,13.89
2017-10-24T05:15:47.464Z,13.87
2017-10-24T05:18:16.620Z,13.76
2017-10-24T05:20:44.974Z,13.82
2017-10-24T05:23:13.306Z,14.09
2017-10-24T05:25:41.668Z,14.16
2017-10-24T05:28:10.028Z,14.20
2017-10-24T05:30:39.929Z,14.29
2017-10-24T05:33:09.455Z,14.25
2017-10-24T05:35:39.137Z,14.28
2017-10-24T05:38:08.381Z,14.47
2017-10-24T05:40:36.804Z,14.62
2017-10-24T05:43:05.386Z,14.63
2017-10-24T05:45:34.526Z,14.50
2017-10-24T05:48:03.675Z,14.36
2017-10-24T05:50:32.713Z,14.22
2017-10-24T05:53:01.845Z,14.12
2017-10-24T05:55:30.291Z,14.22
2017-10-24T05:57:59.496Z,14.19
2017-10-24T06:00:28.224Z,14.26
2017-10-24T06:02:56.601Z,14.32
2017-10-24T06:05:24.954Z,14.35
2017-10-24T06:07:54.173Z,14.49
2017-10-24T06:10:23.138Z,14.32
2017-10-24T06:12:51.518Z,14.12
2017-10-24T06:15:19.955Z,14.02
2017-10-24T06:17:48.808Z,13.83
2017-10-24T06:20:17.150Z,13.67
2017-10-24T06:22:46.279Z,13.92
2017-10-24T06:25:14.650Z,13.86
2017-10-24T06:27:43.021Z,14.01
2017-10-24T06:30:12.151Z,13.85
2017-10-24T06:32:40.844Z,13.79
2017-10-24T06:35:09.184Z,13.82
2017-10-24T06:37:38.303Z,13.69
2017-10-24T06:40:06.755Z,13.63
2017-10-24T06:42:35.090Z,13.87
2017-10-24T06:45:03.452Z,13.59
2017-10-24T06:47:32.097Z,13.43
2017-10-24T06:50:01.214Z,13.49
2017-10-24T06:52:30.274Z,13.33
2017-10-24T06:54:59.345Z,13.30
2017-10-24T06:57:27.695Z,13.36
2017-10-24T06:59:56.094Z,13.69
2017-10-24T07:02:24.758Z,13.71
2017-10-24T07:04:53.859Z,13.82
2017-10-24T07:07:22.191Z,13.80
2017-10-24T07:09:50.580Z,13.79
2017-10-24T07:12:19.696Z,13.68
2017-10-24T07:14:48.134Z,13.72
2017-10-24T07:17:16.516Z,13.66
2017-10-24T07:19:44.866Z,13.66
2017-10-24T07:22:13.219Z,13.97
2017-10-24T07:24:41.766Z,14.06
2017-10-24T07:27:10.121Z,14.08
2017-10-24T07:29:39.290Z,14.37
2017-10-24T07:32:07.671Z,14.01
2017-10-24T07:34:36.782Z,14.20
2017-10-24T07:37:05.882Z,14.01
2017-10-24T07:39:36.661Z,14.08
2017-10-24T07:42:05.776Z,14.29
2017-10-24T07:44:34.137Z,14.06
2017-10-24T07:47:04.432Z,14.20
2017-10-24T07:49:32.778Z,14.19
2017-10-24T07:52:01.129Z,14.47
2017-10-24T07:54:29.511Z,14.24
2017-10-24T07:56:58.112Z,14.08
2017-10-24T07:59:26.457Z,14.12
2017-10-24T08:01:55.679Z,14.09
2017-10-24T08:04:24.016Z,14.06
2017-10-24T08:06:52.375Z,14.29
2017-10-24T08:09:21.416Z,14.44
2017-10-24T08:11:49.783Z,14.59
2017-10-24T08:14:18.837Z,14.38
2017-10-24T08:16:47.223Z,14.32
2017-10-24T08:19:15.594Z,14.00
2017-10-24T08:21:43.939Z,13.93
2017-10-24T08:24:13.036Z,13.96
2017-10-24T08:26:42.039Z,13.86
2017-10-24T08:29:11.157Z,13.99
2017-10-24T08:31:39.745Z,13.98
2017-10-24T08:34:08.460Z,14.13
2017-10-24T08:36:37.649Z,14.31
2017-10-24T08:39:07.134Z,14.56
2017-10-24T08:41:35.483Z,14.71
2017-10-24T08:44:03.827Z,14.77
2017-10-24T08:46:32.965Z,14.88
2017-10-24T08:49:01.333Z,14.68
2017-10-24T08:51:30.383Z,14.58
2017-10-24T08:53:59.812Z,14.68
2017-10-24T08:56:29.070Z,14.77
2017-10-24T08:58:57.425Z,14.67
2017-10-24T09:01:28.433Z,14.63
2017-10-24T09:03:57.718Z,14.50
2017-10-24T09:06:35.480Z,14.62
2017-10-24T09:12:14.430Z,14.76
2017-10-24T09:14:42.757Z,14.93
2017-10-24T09:17:44.517Z,14.98
2017-10-24T09:20:13.664Z,15.19
2017-10-24T09:22:42.019Z,15.37
2017-10-24T09:25:11.165Z,15.29
2017-10-24T09:27:39.748Z,15.39
2017-10-24T09:30:08.770Z,15.33
2017-10-24T09:32:39.568Z,15.44
2017-10-24T09:35:07.937Z,15.42
2017-10-24T09:37:36.281Z,15.29
2017-10-24T09:40:04.671Z,15.39
2017-10-24T09:42:33.086Z,15.45
2017-10-24T09:45:01.449Z,15.48
2017-10-24T09:47:29.824Z,15.54
2017-10-24T09:49:58.209Z,15.85
2017-10-24T09:52:26.565Z,15.59
2017-10-24T09:54:55.043Z,15.73
2017-10-24T09:57:24.162Z,15.74
2017-10-24T09:59:52.502Z,15.52
2017-10-24T10:02:21.921Z,15.49
2017-10-24T10:04:51.041Z,15.81
2017-10-24T10:07:20.175Z,15.72
2017-10-24T10:09:48.604Z,15.62
2017-10-24T10:12:17.022Z,15.53
2017-10-24T10:14:46.062Z,15.31
2017-10-24T10:17:14.778Z,15.60
2017-10-24T10:19:43.107Z,15.58
2017-10-24T10:22:12.222Z,15.88
2017-10-24T10:24:41.510Z,15.59
2017-10-24T10:27:10.613Z,15.69
2017-10-24T10:29:39.897Z,15.49
2017-10-24T10:32:08.286Z,15.41
2017-10-24T10:34:37.405Z,15.39
2017-10-24T10:37:05.754Z,15.38
2017-10-24T10:39:34.331Z,15.75
2017-10-24T10:42:02.687Z,15.52
2017-10-24T10:44:31.048Z,15.31
2017-10-24T10:46:59.442Z,15.52
2017-10-24T10:49:27.799Z,15.52
2017-10-24T10:51:56.142Z,15.53
2017-10-24T10:54:25.446Z,15.73
2017-10-24T10:56:55.329Z,15.81
2017-10-24T10:59:23.711Z,15.73
2017-10-24T11:01:52.453Z,15.93
2017-10-24T11:04:20.808Z,16.06
2017-10-24T11:06:49.924Z,15.49
2017-10-24T11:09:19.053Z,15.41
2017-10-24T11:11:47.399Z,15.52
2017-10-24T11:14:15.748Z,15.14
2017-10-24T11:16:44.950Z,15.32
2017-10-24T11:19:14.074Z,15.24
2017-10-24T11:21:48.948Z,15.40
2017-10-24T11:24:17.797Z,15.24
2017-10-24T11:26:46.146Z,15.20
2017-10-24T11:29:15.337Z,15.21
2017-10-24T11:31:44.106Z,15.42
2017-10-24T11:34:12.467Z,15.58
2017-10-24T11:36:41.606Z,15.39
2017-10-24T11:39:09.941Z,15.31
2017-10-24T11:41:38.299Z,15.39
2017-10-24T11:44:06.739Z,15.49
2017-10-24T11:46:35.870Z,15.50
2017-10-24T11:49:04.590Z,15.56
2017-10-24T11:51:32.963Z,15.70
2017-10-24T11:54:02.238Z,15.47
2017-10-24T11:56:30.578Z,15.51
2017-10-24T11:58:59.408Z,15.30
2017-10-24T12:01:27.753Z,15.32
2017-10-24T12:03:56.135Z,15.31
2017-10-24T12:06:25.494Z,15.41
2017-10-24T12:08:55.387Z,15.30
2017-10-24T12:11:23.737Z,15.30
2017-10-24T12:13:52.895Z,15.33
2017-10-24T12:16:21.242Z,15.63
2017-10-24T12:18:49.584Z,15.69
2017-10-24T12:21:18.742Z,15.91
2017-10-24T12:23:47.095Z,15.66
2017-10-24T12:26:15.437Z,15.89
2017-10-24T12:28:44.876Z,15.85
2017-10-24T12:31:13.228Z,15.84
2017-10-24T12:33:42.334Z,15.70
2017-10-24T12:36:10.724Z,15.97
2017-10-24T12:38:39.068Z,15.54
2017-10-24T12:41:08.193Z,15.67
2017-10-24T12:43:37.338Z,15.54
2017-10-24T12:46:22.369Z,15.29
2017-10-24T12:48:51.486Z,15.47
2017-10-24T12:51:19.843Z,15.73
2017-10-24T12:53:48.209Z,15.49
2017-10-24T12:56:17.357Z,15.78
2017-10-24T12:58:46.722Z,15.86
2017-10-24T13:01:15.099Z,15.87
2017-10-24T13:03:43.494Z,15.70
2017-10-24T13:06:11.875Z,15.65
2017-10-24T13:08:40.259Z,15.45
2017-10-24T13:11:08.972Z,15.38
2017-10-24T13:13:37.347Z,15.37
2017-10-24T13:16:05.875Z,15.48
2017-10-24T13:18:34.463Z,15.66
2017-10-24T13:21:02.830Z,15.71
2017-10-24T13:23:31.560Z,15.73
2017-10-24T13:25:59.942Z,15.69
2017-10-24T13:28:28.323Z,15.73
2017-10-24T13:30:56.668Z,15.89
2017-10-24T13:33:26.096Z,15.98
2017-10-24T13:35:54.468Z,16.09
2017-10-24T13:38:23.451Z,15.74
2017-10-24T13:40:54.489Z,15.65
2017-10-24T13:43:22.958Z,15.48
2017-10-24T13:45:52.094Z,15.69
2017-10-24T13:48:20.474Z,15.67
2017-10-24T13:50:48.832Z,15.78
2017-10-24T13:53:17.186Z,15.82
2017-10-24T13:55:46.393Z,15.89
2017-10-24T13:58:15.513Z,15.63
2017-10-24T14:00:44.096Z,15.53
2017-10-24T14:03:12.486Z,15.68
2017-10-24T14:05:46.113Z,15.57
2017-10-24T14:08:20.780Z,15.60
2017-10-24T14:10:50.140Z,15.63
2017-10-24T14:13:19.257Z,15.59
2017-10-24T14:15:48.024Z,15.51
2017-10-24T14:18:16.388Z,15.64
2017-10-24T14:20:44.725Z,15.56
2017-10-24T14:23:13.366Z,15.40
2017-10-24T14:25:41.730Z,15.47
2017-10-24T14:28:10.065Z,15.48
2017-10-24T14:30:38.457Z,15.69
2017-10-24T14:33:07.575Z,15.73
2017-10-24T14:35:35.924Z,15.35
2017-10-24T14:38:05.110Z,15.32
2017-10-24T14:40:33.460Z,15.48
2017-10-24T14:43:01.815Z,15.46
2017-10-24T14:45:30.190Z,15.50
2017-10-24T14:47:59.147Z,15.55
2017-10-24T14:50:28.278Z,15.37
2017-10-24T14:52:56.663Z,15.48
2017-10-24T14:55:24.998Z,15.63
2017-10-24T14:57:53.345Z,15.73
2017-10-24T15:00:21.894Z,15.79
2017-10-24T15:02:50.242Z,15.89
2017-10-24T15:05:19.363Z,15.70
2017-10-24T15:07:47.779Z,15.74
2017-10-24T15:10:16.131Z,15.89
2017-10-24T15:12:44.800Z,15.46
2017-10-24T15:15:13.177Z,15.54
2017-10-24T15:17:41.548Z,15.77
2017-10-24T15:20:10.928Z,15.65
2017-10-24T15:22:40.392Z,15.65
2017-10-24T15:25:08.784Z,15.87
2017-10-24T15:27:37.122Z,15.48
2017-10-24T15:30:06.490Z,15.74
2017-10-24T15:32:34.842Z,15.74
2017-10-24T15:35:03.188Z,15.62
2017-10-24T15:37:32.073Z,15.57
2017-10-24T15:40:01.180Z,15.63
2017-10-24T15:42:30.333Z,15.73
2017-10-24T15:44:58.885Z,15.69
2017-10-24T15:47:27.226Z,15.66
2017-10-24T15:49:55.583Z,15.64
2017-10-24T15:52:23.984Z,15.68
2017-10-24T15:54:52.345Z,15.72
2017-10-24T15:57:21.476Z,15.62
2017-10-24T15:59:49.836Z,15.59
2017-10-24T16:02:19.341Z,15.39
2017-10-24T16:04:48.442Z,15.57
2017-10-24T16:07:17.236Z,15.43
2017-10-24T16:09:45.581Z,15.25
2017-10-24T16:12:13.962Z,15.38
2017-10-24T16:14:42.444Z,15.40
2017-10-24T16:17:11.633Z,15.56
2017-10-24T16:19:39.990Z,15.79
2017-10-24T16:22:08.388Z,15.61
2017-10-24T16:24:36.742Z,15.63
2017-10-24T16:27:05.538Z,15.74
2017-10-24T16:29:34.348Z,15.85
2017-10-24T16:32:02.721Z,15.92
2017-10-24T16:34:31.576Z,15.88
2017-10-24T16:36:59.972Z,15.85
2017-10-24T16:39:29.044Z,15.85
2017-10-24T16:41:58.223Z,16.04
2017-10-24T16:44:27.367Z,15.97
2017-10-24T16:46:55.717Z,16.04
2017-10-24T16:49:24.081Z,16.01
2017-10-24T16:51:53.416Z,16.01
2017-10-24T16:54:22.339Z,15.93
2017-10-24T16:56:50.918Z,15.80
2017-10-24T16:59:19.320Z,15.49
2017-10-24T17:01:47.705Z,15.57
2017-10-24T17:04:17.360Z,15.58
2017-10-24T17:06:45.730Z,15.75
2017-10-24T17:09:14.074Z,15.69
2017-10-24T17:11:43.201Z,15.78
2017-10-24T17:14:11.807Z,15.97
2017-10-24T17:16:40.290Z,15.90
2017-10-24T17:19:08.639Z,15.80
2017-10-24T17:21:37.018Z,15.76
2017-10-24T17:24:05.396Z,15.80
2017-10-24T17:26:34.048Z,16.02
2017-10-24T17:29:02.602Z,16.01
2017-10-24T17:31:30.944Z,16.02
2017-10-24T17:33:59.293Z,16.11
2017-10-24T17:36:28.259Z,15.84
2017-10-24T17:38:56.667Z,16.06
2017-10-24T17:41:25.029Z,15.99
2017-10-24T17:43:54.198Z,16.09
2017-10-24T17:46:22.547Z,15.95
2017-10-24T17:48:51.692Z,16.01
2017-10-24T17:51:20.069Z,16.04
2017-10-24T17:53:48.429Z,15.94
2017-10-24T17:56:16.787Z,15.89
2017-10-24T17:58:45.567Z,16.06
2017-10-24T18:01:13.951Z,16.10
2017-10-24T18:03:42.307Z,16.01
2017-10-24T18:06:10.697Z,16.02
2017-10-24T18:08:39.838Z,16.17
2017-10-24T18:11:08.518Z,16.21
2017-10-24T18:13:37.047Z,16.36
2017-10-24T18:16:06.189Z,16.36
2017-10-24T18:18:35.400Z,16.28
2017-10-24T18:21:03.841Z,16.18
2017-10-24T18:23:32.996Z,16.19
2017-10-24T18:26:01.338Z,16.14
2017-10-24T18:28:29.720Z,16.18
2017-10-24T18:30:58.520Z,16.24
2017-10-24T18:33:26.856Z,16.29
2017-10-24T18:35:56.025Z,16.34
2017-10-24T18:38:24.383Z,16.45
2017-10-24T18:40:52.744Z,16.56
2017-10-24T18:43:21.161Z,16.43
2017-10-24T18:45:49.503Z,16.65
2017-10-24T18:48:18.621Z,16.39
2017-10-24T18:50:47.570Z,16.47
2017-10-24T18:53:15.903Z,16.68
2017-10-24T18:55:44.267Z,16.51
2017-10-24T18:58:12.667Z,16.61
2017-10-24T19:00:41.039Z,16.42
2017-10-24T19:03:09.412Z,16.58
2017-10-24T19:05:38.085Z,16.58
2017-10-24T19:08:06.685Z,16.75
2017-10-24T19:10:35.402Z,16.69
2017-10-24T19:13:03.804Z,16.83
2017-10-24T19:15:32.925Z,16.84
2017-10-24T19:18:02.056Z,17.06
2017-10-24T19:20:30.432Z,16.64
2017-10-24T19:22:58.779Z,16.81
2017-10-24T19:25:27.114Z,16.67
2017-10-24T19:27:55.863Z,16.74
2017-10-24T19:30:24.227Z,16.81
2017-10-24T19:32:53.343Z,16.72
2017-10-24T19:35:21.736Z,16.54
2017-10-24T19:37:50.104Z,16.76
2017-10-24T19:40:18.782Z,16.68
2017-10-24T19:42:47.462Z,16.62
2017-10-24T19:45:15.810Z,16.74
2017-10-24T19:47:44.409Z,16.77
2017-10-24T19:50:12.856Z,16.78
2017-10-24T19:52:41.998Z,16.78
2017-10-24T19:55:10.337Z,16.66
2017-10-24T19:57:39.489Z,16.71
2017-10-24T20:00:07.856Z,16.68
2017-10-24T20:02:36.438Z,16.70
2017-10-24T20:05:04.807Z,16.64
2017-10-24T20:07:33.146Z,16.72
2017-10-24T20:10:01.569Z,16.57
2017-10-24T20:12:31.306Z,16.62
2017-10-24T20:15:00.579Z,16.72
2017-10-24T20:17:28.928Z,16.78
2017-10-24T20:19:57.317Z,16.80
2017-10-24T20:22:26.444Z,16.84
2017-10-24T20:24:54.837Z,16.55
2017-10-24T20:27:23.218Z,16.71
2017-10-24T20:29:52.202Z,16.72
2017-10-24T20:32:20.986Z,16.85
2017-10-24T20:34:50.091Z,16.98
2017-10-24T20:37:18.430Z,17.10
2017-10-24T20:39:46.821Z,17.07
2017-10-24T20:42:15.590Z,17.06
2017-10-24T20:44:44.727Z,16.98
2017-10-24T20:47:13.074Z,16.71
2017-10-24T20:49:43.070Z,16.78
2017-10-24T20:52:11.402Z,16.99
2017-10-24T20:54:39.908Z,16.95
2017-10-24T20:57:09.277Z,16.93
2017-10-24T20:59:38.426Z,17.06
2017-10-24T21:02:06.766Z,17.04
2017-10-24T21:04:35.138Z,17.17
2017-10-24T21:07:03.518Z,17.18
2017-10-24T21:09:31.851Z,17.15
2017-10-24T21:12:00.232Z,17.10
2017-10-24T21:14:28.578Z,17.21
2017-10-24T21:16:57.707Z,17.09
2017-10-24T21:19:27.942Z,17.17
2017-10-24T21:21:57.067Z,17.24
2017-10-24T21:24:26.220Z,17.23
2017-10-24T21:26:54.587Z,17.21
2017-10-24T21:29:23.739Z,17.33
2017-10-24T21:31:53.248Z,17.30
2017-10-24T21:34:21.654Z,17.30
2017-10-24T21:36:50.000Z,17.28
2017-10-24T21:39:18.972Z,17.14
2017-10-24T21:41:48.169Z,17.34
2017-10-24T21:44:17.231Z,17.35
2017-10-24T21:46:45.588Z,17.35
2017-10-24T21:49:13.967Z,17.17
2017-10-24T21:51:42.317Z,17.39
2017-10-24T21:54:10.689Z,17.40
2017-10-24T21:56:39.060Z,17.46
2017-10-24T21:59:07.404Z,17.54
2017-10-24T22:01:36.554Z,17.45
2017-10-24T22:04:05.007Z,17.61
2017-10-24T22:06:34.109Z,17.62
2017-10-24T22:09:03.236Z,17.43
2017-10-24T22:11:31.602Z,17.43
2017-10-24T22:14:00.607Z,17.59
2017-10-24T22:16:28.993Z,17.53
2017-10-24T22:18:57.369Z,17.41
2017-10-24T22:21:25.719Z,17.39
2017-10-24T22:23:54.836Z,17.40
2017-10-24T22:26:23.393Z,17.34
2017-10-24T22:28:52.745Z,17.60
2017-10-24T22:31:21.853Z,17.62
2017-10-24T22:33:50.542Z,17.89
2017-10-24T22:36:20.505Z,17.69
2017-10-24T22:38:49.105Z,17.49
2017-10-24T22:41:18.336Z,17.68
2017-10-24T22:43:46.659Z,17.66
2017-10-24T22:46:16.496Z,17.81
2017-10-24T22:48:45.146Z,18.00
2017-10-24T22:51:13.563Z,17.88
2017-10-24T22:53:41.914Z,18.06
2017-10-24T22:56:10.318Z,18.11
2017-10-24T22:58:39.843Z,17.80
2017-10-24T23:01:08.226Z,17.93
2017-10-24T23:03:36.856Z,17.89
2017-10-24T23:06:06.214Z,17.99
2017-10-24T23:08:34.575Z,17.98
2017-10-24T23:11:03.906Z,18.01
2017-10-24T23:13:33.270Z,17.84
2017-10-24T23:16:01.743Z,17.85
2017-10-24T23:18:30.125Z,17.72
2017-10-24T23:20:59.266Z,17.89
2017-10-24T23:23:27.609Z,17.89
2017-10-24T23:25:55.978Z,17.91
2017-10-24T23:28:25.091Z,18.02
2017-10-24T23:30:53.416Z,17.88
2017-10-24T23:33:21.885Z,18.00
2017-10-24T23:35:50.725Z,18.04
2017-10-24T23:38:19.850Z,17.73
2017-10-24T23:40:49.308Z,17.94
2017-10-24T23:43:18.460Z,18.14
2017-10-24T23:45:46.883Z,18.15
2017-10-24T23:48:16.044Z,18.19
2017-10-24T23:50:44.407Z,18.24
2017-10-24T23:53:12.762Z,18.39
2017-10-24T23:55:41.286Z,18.20
2017-10-24T23:58:09.621Z,18.36
